Weather History for KDBN - December, 2012

Change the Weather History Date:

Sunday, December 16, 2012

  Actual Average Record
Temperature  
Mean Temperature 61 °F -  
Max Temperature 69 °F 60 °F 79 °F (1933)
Min Temperature 53 °F 36 °F 16 °F (1968)
Degree Days  
Heating Degree Days 4    
Growing Degree Days 11 (Base 50)    
Moisture  
Dew Point 59 °F    
Average Humidity 94    
Maximum Humidity 100    
Minimum Humidity 68    
Precipitation  
Precipitation 0.00 in - - ()
Sea Level Pressure  
Sea Level Pressure 30.01 in    
Wind  
Wind Speed 2 mph (South)    
Max Wind Speed 13 mph    
Max Gust Speed 21 mph    
Visibility 7 miles    
Events Fog , Rain    
Averages and records for this station are not official NWS values.
T = Trace of Precipitation, MM = Missing Value Source: NWS Daily Summary

Daily Weather History Graph

Daily Weather History Graph

Search for Another Location

Airport or City:

Trip Planner

Search our weather history database for the weather conditions in past years. The results will help you decide how hot, cold, wet, or windy it might be!

Date:

Astronomy

Dec. 16, 2012 Rise Set
Actual Time 7:27 AM EST 5:28 PM EST
Civil Twilight 7:00 AM EST 5:55 PM EST
Nautical Twilight 6:29 AM EST 6:26 PM EST
Astronomical Twilight 5:59 AM EST 6:56 PM EST
Moon 10:09 AM EST (12/16) 9:30 PM EST (12/16)
Length of Visible Light 10h 55m
Length of Day
10h 01m
Waxing Crescent, 16% of the Moon is Illuminated
Dec 16
Waxing Crescent
Dec 20
First Quarter
Dec 28
Full
Jan 4
Last Quarter
Jan 11
New

Hourly Weather History & Observations

Time (EST) Temp. Dew Point Humidity Pressure Visibility Wind Dir Wind Speed Gust Speed Precip Events Conditions
12:15 AM 53.6 °F 53.6 °F 100% 30.12 in 10.0 mi Calm Calm - N/A   Overcast
12:35 AM 53.6 °F 53.6 °F 100% 30.11 in 10.0 mi SSE 3.5 mph - N/A   Overcast
12:55 AM 53.6 °F 53.6 °F 100% 30.10 in 10.0 mi Calm Calm - N/A   Overcast
1:15 AM 53.6 °F 53.6 °F 100% 30.09 in 10.0 mi Calm Calm - N/A   Overcast
1:35 AM 53.6 °F 53.6 °F 100% 30.09 in 7.0 mi Calm Calm - N/A   Overcast
1:55 AM 53.6 °F 53.6 °F 100% 30.10 in 7.0 mi Calm Calm - N/A   Overcast
2:15 AM 53.6 °F 53.6 °F 100% 30.09 in 7.0 mi Calm Calm - N/A   Overcast
2:55 AM 53.6 °F 53.6 °F 100% 30.07 in 0.8 mi Calm Calm - N/A   Overcast
3:15 AM 53.6 °F 53.6 °F 100% 30.06 in 0.2 mi Calm Calm - N/A Fog Fog
3:35 AM 53.6 °F 53.6 °F 100% 30.06 in 0.2 mi Calm Calm - N/A Fog Fog
3:55 AM 53.6 °F 53.6 °F 100% 30.06 in 0.2 mi Calm Calm - N/A Fog Fog
4:35 AM 53.6 °F 53.6 °F 100% 30.05 in 0.8 mi Calm Calm - N/A   Overcast
4:55 AM 53.6 °F 53.6 °F 100% 30.04 in 2.5 mi Calm Calm - N/A   Overcast
5:35 AM 53.6 °F 53.6 °F 100% 30.05 in 2.5 mi Calm Calm - N/A   Overcast
5:55 AM 55.4 °F 55.4 °F 100% 30.06 in 1.8 mi Calm Calm - N/A   Overcast
6:15 AM 55.4 °F 55.4 °F 100% 30.06 in 1.5 mi Calm Calm - N/A   Overcast
6:55 AM 53.6 °F 53.6 °F 100% 30.07 in 0.2 mi Calm Calm - N/A Fog Fog
7:15 AM 53.6 °F 53.6 °F 100% 30.07 in 0.2 mi Calm Calm - N/A Fog Fog
7:35 AM 55.4 °F 55.4 °F 100% 30.08 in 0.2 mi Calm Calm - N/A Fog Fog
7:55 AM 55.4 °F 55.4 °F 100% 30.08 in 0.2 mi Calm Calm - N/A Fog Fog
8:35 AM 55.4 °F 55.4 °F 100% 30.08 in 0.2 mi Calm Calm - N/A Fog Fog
8:55 AM 55.4 °F 55.4 °F 100% 30.07 in 0.2 mi SSE 4.6 mph - N/A Fog Fog
9:15 AM 55.4 °F 55.4 °F 100% 30.07 in 0.5 mi SSE 3.5 mph - N/A Fog Fog
9:35 AM 57.2 °F 57.2 °F 100% 30.08 in 2.0 mi South 3.5 mph - N/A   Overcast
9:55 AM 59.0 °F 59.0 °F 100% 30.08 in 5.0 mi South 3.5 mph - N/A   Overcast
10:15 AM 59.0 °F 59.0 °F 100% 30.09 in 7.0 mi South 3.5 mph - N/A   Overcast
10:35 AM 59.0 °F 59.0 °F 100% 30.10 in 7.0 mi Calm Calm - N/A   Overcast
10:55 AM 60.8 °F 60.8 °F 100% 30.09 in 10.0 mi WSW 3.5 mph - N/A   Overcast
11:15 AM 62.6 °F 62.6 °F 100% 30.08 in 10.0 mi South 3.5 mph - N/A   Overcast
11:35 AM 62.6 °F 62.6 °F 100% 30.06 in 10.0 mi Calm Calm - N/A   Mostly Cloudy
11:55 AM 64.4 °F 62.6 °F 94% 30.05 in 10.0 mi South 5.8 mph - N/A   Overcast
12:35 PM 66.2 °F 62.6 °F 88% 30.01 in 10.0 mi South 6.9 mph - N/A   Overcast
12:55 PM 68.0 °F 60.8 °F 78% 30.01 in 10.0 mi South 6.9 mph - N/A   Overcast
1:15 PM 68.0 °F 60.8 °F 78% 30.00 in 10.0 mi SSW 5.8 mph - N/A   Overcast
1:35 PM 69.8 °F 59.0 °F 68% 29.99 in 10.0 mi South 4.6 mph - N/A   Overcast
1:55 PM 69.8 °F 60.8 °F 73% 29.99 in 10.0 mi WSW 5.8 mph - N/A   Overcast
2:15 PM 68.0 °F 62.6 °F 83% 29.99 in 10.0 mi WSW 3.5 mph - N/A   Overcast
2:35 PM 68.0 °F 62.6 °F 83% 29.98 in 10.0 mi SSW 3.5 mph - N/A   Overcast
2:55 PM 68.0 °F 62.6 °F 83% 29.98 in 10.0 mi Calm Calm - N/A   Overcast
3:15 PM 69.8 °F 60.8 °F 73% 29.96 in 10.0 mi South 3.5 mph - N/A   Overcast
3:35 PM 69.8 °F 60.8 °F 73% 29.95 in 10.0 mi South 4.6 mph - N/A   Overcast
3:55 PM 69.8 °F 60.8 °F 73% 29.96 in 10.0 mi SW 3.5 mph - N/A   Overcast
4:15 PM 69.8 °F 62.6 °F 78% 29.96 in 10.0 mi Calm Calm - N/A   Overcast
4:35 PM 68.0 °F 62.6 °F 83% 29.96 in 10.0 mi Calm Calm - N/A   Overcast
4:55 PM 68.0 °F 62.6 °F 83% 29.95 in 10.0 mi Calm Calm - N/A   Overcast
5:15 PM 66.2 °F 64.4 °F 94% 29.94 in 10.0 mi Calm Calm - N/A   Overcast
5:35 PM 64.4 °F 64.4 °F 100% 29.94 in 10.0 mi NE 3.5 mph - N/A   Overcast
5:55 PM 66.2 °F 64.4 °F 94% 29.93 in 10.0 mi East 4.6 mph - N/A   Overcast
6:15 PM 64.4 °F 64.4 °F 100% 29.94 in 10.0 mi Calm Calm - N/A   Overcast
6:35 PM 64.4 °F 64.4 °F 100% 29.93 in 10.0 mi ESE 4.6 mph - N/A   Overcast
6:55 PM 66.2 °F 64.4 °F 94% 29.93 in 10.0 mi Calm Calm - N/A   Overcast
7:15 PM 64.4 °F 64.4 °F 100% 29.92 in 10.0 mi Calm Calm - N/A   Overcast
7:35 PM 64.4 °F 64.4 °F 100% 29.93 in 10.0 mi Calm Calm - N/A   Overcast
7:55 PM 64.4 °F 62.6 °F 94% 29.93 in 10.0 mi Calm Calm - N/A   Overcast
8:15 PM 62.6 °F 62.6 °F 100% 29.91 in 10.0 mi Calm Calm - N/A   Mostly Cloudy
8:35 PM 62.6 °F 62.6 °F 100% 29.91 in 10.0 mi SE 5.8 mph - N/A   Scattered Clouds
8:55 PM 62.6 °F 62.6 °F 100% 29.90 in 7.0 mi SSE 4.6 mph - N/A   Scattered Clouds
9:15 PM 64.4 °F 62.6 °F 94% 29.90 in 10.0 mi South 6.9 mph - N/A   Mostly Cloudy
9:35 PM 64.4 °F 62.6 °F 94% 29.89 in 10.0 mi South 9.2 mph - N/A   Overcast
9:55 PM 66.2 °F 62.6 °F 88% 29.88 in 10.0 mi South 12.7 mph - N/A   Overcast
10:15 PM 68.0 °F 62.6 °F 83% 29.90 in 10.0 mi SSW 11.5 mph 17.3 mph N/A Rain Rain
10:35 PM 66.2 °F 64.4 °F 94% 29.91 in 10.0 mi SW 8.1 mph - N/A   Overcast
10:55 PM 66.2 °F 64.4 °F 94% 29.91 in 10.0 mi SW 6.9 mph - N/A   Overcast
11:15 PM 64.4 °F 64.4 °F 100% 29.92 in 5.0 mi WSW 6.9 mph - N/A Rain Light Rain
11:35 PM 64.4 °F 64.4 °F 100% 29.93 in 3.0 mi NW 12.7 mph 20.7 mph N/A Rain Heavy Rain
11:55 PM 59.0 °F 59.0 °F 100% 29.95 in 5.0 mi North 10.4 mph 17.3 mph N/A Rain Light Rain